Time;durP1;ratioP1;P1;durP2;ratioP2;P2;SDS_P1;SDS_P2;PMS_P1;PMS_P2;Temp;Humidity;BMP_temperature;BMP_pressure;BME280_temperature;BME280_humidity;BME280_pressure;Samples;Min_cycle;Max_cycle;Signal;HPM_P1;HPM_P2
2022/05/09 00:01:29;;;;;;;6.50;2.77;;;;;;;-145.18;100.00;47410.56;4993144;28;20073;-72
2022/05/09 00:03:55;;;;;;;14.00;3.90;;;;;;;-145.18;100.00;47441.81;4993155;28;20109;-73
2022/05/09 00:06:20;;;;;;;12.87;2.80;;;;;;;-145.18;100.00;47420.31;4992676;28;20042;-73
2022/05/09 00:08:46;;;;;;;11.40;3.10;;;;;;;-145.18;100.00;47422.28;4975670;28;20023;-72
2022/05/09 00:11:12;;;;;;;13.87;4.67;;;;;;;-145.18;100.00;47441.81;4993416;28;20039;-72
2022/05/09 00:13:38;;;;;;;12.07;3.40;;;;;;;-145.18;100.00;47441.81;4975345;28;20096;-72
2022/05/09 00:16:05;;;;;;;12.17;3.03;;;;;;;-145.18;100.00;47434.00;4992933;28;20343;-72
2022/05/09 00:18:31;;;;;;;17.27;3.67;;;;;;;-145.18;100.00;47441.81;4975506;28;20368;-72
2022/05/09 00:20:56;;;;;;;8.23;2.90;;;;;;;-145.18;100.00;47422.28;4992730;28;20272;-72
2022/05/09 00:23:22;;;;;;;11.40;3.80;;;;;;;-145.18;100.00;47426.19;4992612;28;20280;-72
2022/05/09 00:25:47;;;;;;;11.77;3.43;;;;;;;-145.18;100.00;47445.72;4993137;28;20034;-72
2022/05/09 00:28:12;;;;;;;11.90;3.20;;;;;;;-145.18;100.00;47443.75;4992390;28;20446;-72
2022/05/09 00:30:38;;;;;;;11.60;3.70;;;;;;;-145.18;100.00;47463.31;4992885;28;20030;-72
2022/05/09 00:33:04;;;;;;;16.50;3.57;;;;;;;-145.18;100.00;47473.06;4992931;28;20058;-72
2022/05/09 00:35:29;;;;;;;12.90;3.40;;;;;;;-145.18;100.00;47494.56;4992763;28;20113;-72
2022/05/09 00:37:55;;;;;;;13.30;3.30;;;;;;;-145.18;100.00;47476.97;4991058;28;20386;-72
2022/05/09 00:40:20;;;;;;;9.80;3.10;;;;;;;-145.18;100.00;47488.69;4992748;28;20049;-72
2022/05/09 00:42:48;;;;;;;9.77;2.90;;;;;;;-145.18;100.00;47484.78;4991596;28;20093;-72
2022/05/09 00:45:14;;;;;;;11.47;3.23;;;;;;;-145.18;100.00;47469.16;4992531;28;20026;-73
2022/05/09 00:47:40;;;;;;;14.10;3.20;;;;;;;-145.18;100.00;47504.31;4992483;28;20276;-72
2022/05/09 00:50:08;;;;;;;12.03;3.93;;;;;;;-145.18;100.00;47516.06;4992157;28;20276;-73
2022/05/09 00:52:43;;;;;;;20.13;4.27;;;;;;;-145.18;100.00;47512.16;4992268;28;20307;-73
2022/05/09 00:55:18;;;;;;;13.52;2.85;;;;;;;-145.18;100.00;47527.78;4992552;28;20335;-73
2022/05/09 00:57:50;;;;;;;12.00;4.13;;;;;;;-145.18;100.00;47516.06;4992192;28;20427;-72
2022/05/09 01:00:17;;;;;;;11.40;3.03;;;;;;;-145.18;100.00;47516.06;4992296;28;20354;-72
2022/05/09 01:02:47;;;;;;;9.03;3.33;;;;;;;-145.18;100.00;47545.34;4991974;28;20785;-72
2022/05/09 01:05:15;;;;;;;11.03;3.00;;;;;;;-145.18;100.00;47527.78;4991708;28;20787;-72
2022/05/09 01:07:41;;;;;;;19.23;4.07;;;;;;;-145.18;100.00;47521.91;4991914;28;20272;-71
2022/05/09 01:10:11;;;;;;;18.13;3.57;;;;;;;-145.18;100.00;47523.88;4992290;28;20304;-72
2022/05/09 01:12:39;;;;;;;15.57;2.97;;;;;;;-145.18;100.00;47504.31;4992129;28;20745;-72
2022/05/09 01:15:12;;;;;;;16.43;3.77;;;;;;;-145.18;100.00;47535.59;4992189;28;20278;-72
2022/05/09 01:17:39;;;;;;;9.80;3.03;;;;;;;-145.18;100.00;47543.41;4991728;28;20302;-72
2022/05/09 01:20:07;;;;;;;8.27;3.17;;;;;;;-145.18;100.00;47523.88;4974420;28;20284;-72
2022/05/09 01:22:35;;;;;;;18.80;4.37;;;;;;;-145.18;100.00;47514.09;4991483;28;20339;-72
2022/05/09 01:25:03;;;;;;;13.93;3.30;;;;;;;-145.18;100.00;47510.19;4991955;28;20275;-72
2022/05/09 01:27:30;;;;;;;15.63;3.60;;;;;;;-145.18;100.00;47484.78;4991228;28;20287;-72
2022/05/09 01:30:14;;;;;;;17.33;4.00;;;;;;;-145.18;100.00;47435.94;4974556;28;20272;-73
2022/05/09 01:32:44;;;;;;;9.97;2.77;;;;;;;-145.18;100.00;47441.81;4991900;28;20359;-72
2022/05/09 01:35:38;;;;;;;12.33;3.93;;;;;;;-145.18;100.00;47422.28;4991885;28;20417;-72
2022/05/09 01:38:16;;;;;;;10.90;3.07;;;;;;;-145.18;100.00;47418.38;4991089;28;20358;-72
2022/05/09 01:40:42;;;;;;;17.77;3.63;;;;;;;-145.18;100.00;47307.00;4991721;28;20322;-72
2022/05/09 01:43:07;;;;;;;13.77;3.50;;;;;;;-145.18;100.00;47232.75;4991566;28;20272;-72
2022/05/09 01:45:32;;;;;;;10.53;3.27;;;;;;;-145.18;100.00;47264.03;4991489;28;20041;-72
2022/05/09 01:50:42;;;;;;;13.83;3.03;;;;;;;-145.18;100.00;47371.47;4992015;28;20053;-73
2022/05/09 01:53:08;;;;;;;22.13;4.33;;;;;;;-145.18;100.00;47281.59;4973565;28;20326;-72
2022/05/09 01:55:33;;;;;;;14.13;3.40;;;;;;;-145.18;100.00;47301.16;4991585;28;20268;-72
2022/05/09 01:57:59;;;;;;;14.10;4.20;;;;;;;-145.18;100.00;47164.38;4984235;28;20050;-72
2022/05/09 02:03:11;;;;;;;12.07;4.30;;;;;;;-145.18;100.00;46992.47;5017036;23;20060;-71
2022/05/09 02:05:38;;;;;;;10.73;3.43;;;;;;;-145.18;100.00;46881.13;4950722;28;20298;-71
2022/05/09 02:08:03;;;;;;;9.77;3.30;;;;;;;-145.18;100.00;46879.19;4951772;29;20041;-71
2022/05/09 02:10:29;;;;;;;14.97;3.33;;;;;;;-145.18;100.00;46863.53;4952070;29;20656;-71
2022/05/09 02:12:54;;;;;;;11.63;3.83;;;;;;;-145.18;100.00;46859.63;4952110;29;20051;-71
2022/05/09 02:15:20;;;;;;;15.53;4.50;;;;;;;-145.18;100.00;46842.06;4952402;29;20050;-71
2022/05/09 02:17:47;;;;;;;7.00;3.17;;;;;;;-145.18;100.00;46826.44;4934586;29;20426;-71
2022/05/09 02:20:13;;;;;;;16.70;3.33;;;;;;;-145.18;100.00;46842.06;4952547;29;20472;-71
2022/05/09 02:22:38;;;;;;;13.73;3.50;;;;;;;-145.18;100.00;46842.06;4951811;29;20274;-71
2022/05/09 02:25:26;;;;;;;12.80;3.40;;;;;;;-145.18;100.00;46896.75;4934558;29;20675;-71
2022/05/09 02:27:49;;;;;;;12.70;3.65;;;;;;;-145.18;100.00;46844.00;4951801;29;20046;-71
2022/05/09 02:30:15;;;;;;;13.93;3.70;;;;;;;-145.18;100.00;46838.16;4952050;29;20043;-71
2022/05/09 02:32:40;;;;;;;15.93;3.93;;;;;;;-145.18;100.00;46822.53;4951533;29;20190;-71
2022/05/09 02:35:06;;;;;;;9.40;3.30;;;;;;;-145.18;100.00;46814.72;4952105;29;20081;-71
2022/05/09 02:37:32;;;;;;;11.60;3.67;;;;;;;-145.18;100.00;46826.44;4951706;29;20078;-71
2022/05/09 02:39:58;;;;;;;12.60;3.63;;;;;;;-145.18;100.00;46822.53;4945631;29;20039;-71
2022/05/09 02:42:23;;;;;;;11.30;3.27;;;;;;;-145.18;100.00;46820.56;4932720;29;20286;-71
2022/05/09 02:44:50;;;;;;;14.70;4.20;;;;;;;-145.18;100.00;46806.91;4931630;29;20039;-71
2022/05/09 02:47:17;;;;;;;11.10;3.57;;;;;;;-145.18;100.00;46799.09;4931999;29;20032;-71
2022/05/09 02:49:42;;;;;;;19.43;4.30;;;;;;;-145.18;100.00;46822.53;4932811;29;20281;-71
2022/05/09 02:52:08;;;;;;;14.97;4.00;;;;;;;-145.18;100.00;46797.13;4932330;29;20320;-71
2022/05/09 02:54:33;;;;;;;11.83;3.47;;;;;;;-145.18;100.00;46799.09;4932596;29;20047;-71
2022/05/09 02:56:59;;;;;;;8.93;3.47;;;;;;;-145.18;100.00;46806.91;4931899;29;20039;-71
2022/05/09 02:59:24;;;;;;;9.67;3.70;;;;;;;-145.18;100.00;46797.13;4932019;29;20043;-74
2022/05/09 03:01:49;;;;;;;14.50;3.77;;;;;;;-145.18;100.00;46818.63;4937793;29;20440;-73
2022/05/09 03:06:59;;;;;;;12.17;4.33;;;;;;;-145.18;100.00;46814.72;4951002;29;20057;-71
2022/05/09 03:09:24;;;;;;;11.47;4.50;;;;;;;-145.18;100.00;46826.44;4934220;29;20364;-71
2022/05/09 03:11:49;;;;;;;14.30;3.80;;;;;;;-145.18;100.00;46816.66;4951249;29;20384;-71
2022/05/09 03:14:15;;;;;;;12.03;3.57;;;;;;;-145.18;100.00;46810.81;4951356;29;20109;-71
2022/05/09 03:16:40;;;;;;;14.73;4.73;;;;;;;-145.18;100.00;46816.66;4951730;29;20039;-71
2022/05/09 03:19:05;;;;;;;14.63;3.50;;;;;;;-145.18;100.00;46806.91;4951045;29;20039;-71
2022/05/09 03:21:31;;;;;;;14.07;3.40;;;;;;;-145.18;100.00;46818.63;4951742;29;20054;-71
2022/05/09 03:23:56;;;;;;;13.90;4.00;;;;;;;-145.18;100.00;46814.72;4951048;29;20027;-71
2022/05/09 03:26:21;;;;;;;11.97;3.80;;;;;;;-145.18;100.00;46820.56;4951527;29;20496;-71
2022/05/09 03:28:47;;;;;;;7.60;3.07;;;;;;;-145.18;100.00;46816.66;4951207;29;20167;-71
2022/05/09 03:31:13;;;;;;;12.87;3.63;;;;;;;-145.18;100.00;46812.75;4951143;29;20047;-71
2022/05/09 03:33:39;;;;;;;11.87;3.27;;;;;;;-145.18;100.00;46808.84;4951094;29;20047;-71
2022/05/09 03:36:05;;;;;;;10.63;3.40;;;;;;;-145.18;100.00;46826.44;4951708;29;20063;-71
2022/05/09 03:38:30;;;;;;;13.20;3.97;;;;;;;-145.18;100.00;46808.84;4950761;29;20347;-71
2022/05/09 03:40:55;;;;;;;13.97;3.53;;;;;;;-145.18;100.00;46803.00;4951230;29;20047;-71
2022/05/09 03:43:21;;;;;;;9.73;3.27;;;;;;;-145.18;100.00;46801.03;4951090;29;20035;-71
2022/05/09 03:45:49;;;;;;;17.03;3.67;;;;;;;-145.18;100.00;46791.28;4950884;29;20063;-71
2022/05/09 03:48:15;;;;;;;17.40;4.40;;;;;;;-145.18;100.00;46795.19;4951170;29;20118;-71
2022/05/09 03:50:40;;;;;;;24.53;4.67;;;;;;;-145.18;100.00;46801.03;4951377;29;20786;-73
2022/05/09 03:53:06;;;;;;;16.07;4.17;;;;;;;-145.18;100.00;46777.59;4950907;29;20046;-74
2022/05/09 03:55:33;;;;;;;16.27;4.30;;;;;;;-145.18;100.00;46769.78;4951494;29;20403;-74
2022/05/09 03:57:58;;;;;;;16.00;4.10;;;;;;;-145.18;100.00;46713.13;4950438;29;20054;-74
2022/05/09 04:00:28;;;;;;;19.20;5.07;;;;;;;-145.18;100.00;46687.75;4951144;29;20269;-73
2022/05/09 04:02:54;;;;;;;18.13;4.10;;;;;;;-145.18;100.00;46668.22;4950544;29;20058;-74
2022/05/09 04:05:20;;;;;;;21.83;4.40;;;;;;;-145.18;100.00;46660.41;4950953;29;20281;-74
2022/05/09 04:07:52;;;;;;;15.07;4.73;;;;;;;-145.18;100.00;46646.72;4950249;28;20278;-74
2022/05/09 04:10:25;;;;;;;15.30;4.40;;;;;;;-145.18;100.00;46644.78;4950746;28;20277;-74
2022/05/09 04:12:51;;;;;;;12.57;4.50;;;;;;;-145.18;100.00;46636.94;4938334;28;20278;-74
2022/05/09 04:18:02;;;;;;;14.67;4.43;;;;;;;-145.18;100.00;46646.72;4952729;28;20319;-74
2022/05/09 04:20:30;;;;;;;17.60;4.00;;;;;;;-145.18;100.00;46642.81;4954864;29;20262;-74
2022/05/09 04:22:59;;;;;;;14.60;5.30;;;;;;;-145.18;100.00;46631.09;4953846;29;20332;-74
2022/05/09 04:25:26;;;;;;;21.53;5.30;;;;;;;-145.18;100.00;46625.22;4954493;29;20261;-74
2022/05/09 04:27:51;;;;;;;15.10;4.57;;;;;;;-145.18;100.00;46619.38;4953756;29;20364;-74
2022/05/09 04:30:17;;;;;;;19.10;5.30;;;;;;;-145.18;100.00;46621.31;4953686;29;20360;-75
2022/05/09 04:32:43;;;;;;;15.20;4.70;;;;;;;-145.18;100.00;46623.28;4953850;29;20082;-74
2022/05/09 04:35:13;;;;;;;18.00;4.93;;;;;;;-145.18;100.00;46613.50;4954414;29;20515;-74
2022/05/09 04:37:42;;;;;;;16.47;5.33;;;;;;;-145.18;100.00;46615.47;4953174;29;20024;-73
2022/05/09 04:40:08;;;;;;;19.93;5.17;;;;;;;-145.18;100.00;46617.41;4954050;29;20282;-74
2022/05/09 04:42:34;;;;;;;16.73;4.63;;;;;;;-145.18;100.00;46623.28;4936833;29;20446;-73
2022/05/09 04:44:59;;;;;;;17.63;5.63;;;;;;;-145.18;100.00;46621.31;4953645;28;20273;-72
2022/05/09 04:47:27;;;;;;;16.17;6.13;;;;;;;-145.18;100.00;46617.41;4952096;29;20318;-71
2022/05/09 04:49:52;;;;;;;22.57;5.80;;;;;;;-145.18;100.00;46619.38;4952498;29;20030;-71
2022/05/09 04:52:17;;;;;;;18.17;4.93;;;;;;;-145.18;100.00;46621.31;4953096;29;20266;-71
2022/05/09 04:54:43;;;;;;;17.50;5.43;;;;;;;-145.18;100.00;46633.06;4953658;29;20101;-71
2022/05/09 04:57:08;;;;;;;13.50;4.80;;;;;;;-145.18;100.00;46633.06;4953343;29;20027;-73
2022/05/09 04:59:33;;;;;;;14.90;5.90;;;;;;;-145.18;100.00;46617.41;4935942;29;20039;-73
2022/05/09 05:01:59;;;;;;;15.13;6.00;;;;;;;-145.18;100.00;46621.31;4953540;29;20152;-73
2022/05/09 05:04:25;;;;;;;15.73;5.33;;;;;;;-145.18;100.00;46621.31;4953495;29;20500;-73
2022/05/09 05:06:50;;;;;;;19.93;5.70;;;;;;;-145.18;100.00;46625.22;4936002;29;20277;-73
2022/05/09 05:09:15;;;;;;;16.63;5.50;;;;;;;-145.18;100.00;46633.06;4938306;28;20035;-73
2022/05/09 05:11:41;;;;;;;15.53;5.53;;;;;;;-145.18;100.00;46642.81;4959471;28;20046;-74
2022/05/09 05:14:06;;;;;;;26.47;6.73;;;;;;;-145.18;100.00;46656.50;4972276;28;20041;-73
2022/05/09 05:19:15;;;;;;;14.50;5.37;;;;;;;-145.18;100.00;46666.25;4972539;28;20065;-71
2022/05/09 05:21:44;;;;;;;15.27;5.67;;;;;;;-145.18;100.00;46650.63;4972559;28;20280;-71
2022/05/09 05:24:10;;;;;;;17.57;5.40;;;;;;;-145.18;100.00;46654.53;4971031;28;20039;-71
2022/05/09 05:26:35;;;;;;;14.20;5.00;;;;;;;-145.18;100.00;46660.41;4966961;28;20434;-71
2022/05/09 05:29:00;;;;;;;17.70;5.63;;;;;;;-145.18;100.00;46679.94;4953620;28;20050;-71
2022/05/09 05:31:26;;;;;;;22.73;5.67;;;;;;;-145.18;100.00;46709.22;4972528;28;20115;-71
2022/05/09 05:33:52;;;;;;;17.50;6.27;;;;;;;-145.18;100.00;46703.38;4966919;28;20039;-71
2022/05/09 05:36:17;;;;;;;12.63;5.33;;;;;;;-145.18;100.00;46713.13;4965534;28;20285;-71
2022/05/09 05:38:43;;;;;;;17.20;5.00;;;;;;;-145.18;100.00;46697.50;4972071;28;20039;-71
2022/05/09 05:41:09;;;;;;;19.13;5.47;;;;;;;-145.18;100.00;46724.84;4972367;28;20106;-71
2022/05/09 05:43:35;;;;;;;17.97;5.40;;;;;;;-145.18;100.00;46742.44;4971527;28;20031;-71
2022/05/09 05:46:01;;;;;;;16.67;5.13;;;;;;;-145.18;100.00;46773.69;4972122;28;20343;-71
2022/05/09 05:48:26;;;;;;;25.43;4.87;;;;;;;-145.18;100.00;46756.09;4971970;28;20479;-71
2022/05/09 05:50:54;;;;;;;18.20;5.70;;;;;;;-145.18;100.00;46773.69;4971778;28;20050;-71
2022/05/09 05:53:20;;;;;;;24.30;6.57;;;;;;;-145.18;100.00;46861.59;4971832;28;20114;-72
2022/05/09 05:55:45;;;;;;;11.40;4.60;;;;;;;-145.18;100.00;47031.53;4972080;28;20360;-71
2022/05/09 05:58:11;;;;;;;11.47;4.63;;;;;;;-145.18;100.00;47207.38;4971348;28;20093;-71
2022/05/09 06:00:36;;;;;;;15.03;4.83;;;;;;;-145.18;100.00;47351.94;4971868;28;20062;-71
2022/05/09 06:03:02;;;;;;;18.30;5.00;;;;;;;-145.18;100.00;47385.16;4970908;28;20042;-71
2022/05/09 06:05:27;;;;;;;16.43;4.80;;;;;;;-145.18;100.00;47416.41;4985407;28;20038;-71
2022/05/09 06:07:55;;;;;;;19.97;5.27;;;;;;;-145.18;100.00;47441.81;4972885;28;20826;-72
2022/05/09 06:10:21;;;;;;;15.93;4.63;;;;;;;-145.18;100.00;47422.28;4991295;28;20043;-71
2022/05/09 06:12:47;;;;;;;18.80;4.97;;;;;;;-145.18;100.00;47435.94;4990371;28;20272;-71
2022/05/09 06:15:28;;;;;;;17.30;5.17;;;;;;;-145.18;100.00;47410.56;4991218;28;20275;-71
2022/05/09 06:17:54;;;;;;;12.50;4.30;;;;;;;-145.18;100.00;47414.47;4990198;28;20073;-71
2022/05/09 06:20:20;;;;;;;11.07;4.60;;;;;;;-145.18;100.00;47398.81;4990934;28;20345;-71
2022/05/09 06:22:46;;;;;;;52.53;8.30;;;;;;;-145.18;100.00;47379.28;4990749;28;20268;-71
2022/05/09 06:25:14;;;;;;;24.97;5.27;;;;;;;-145.18;100.00;47402.72;4990962;28;20584;-71
2022/05/09 06:27:41;;;;;;;17.60;5.23;;;;;;;-145.18;100.00;47391.00;4990620;28;20023;-71
2022/05/09 06:30:08;;;;;;;22.90;5.97;;;;;;;-145.18;100.00;47392.97;4990518;28;21148;-71
2022/05/09 06:32:34;;;;;;;14.23;5.43;;;;;;;-145.18;100.00;47385.16;4990724;28;20272;-71
2022/05/09 06:35:01;;;;;;;13.53;4.60;;;;;;;-145.18;100.00;47361.72;4990403;28;20516;-71
2022/05/09 06:37:29;;;;;;;12.00;4.63;;;;;;;-145.18;100.00;47348.03;4990654;28;20542;-71
2022/05/09 06:39:54;;;;;;;17.10;5.27;;;;;;;-145.18;100.00;47324.59;4990299;28;20744;-71
2022/05/09 06:42:19;;;;;;;16.27;4.37;;;;;;;-145.18;100.00;47334.34;4990829;28;20283;-71
2022/05/09 06:44:45;;;;;;;18.83;6.00;;;;;;;-145.18;100.00;47334.34;4990053;28;20038;-71
2022/05/09 06:47:11;;;;;;;17.23;5.23;;;;;;;-145.18;100.00;47322.63;4990546;28;20042;-71
2022/05/09 06:49:36;;;;;;;14.40;5.00;;;;;;;-145.18;100.00;47314.81;4989841;28;20422;-71
2022/05/09 06:52:02;;;;;;;15.50;4.77;;;;;;;-145.18;100.00;47305.06;4990169;28;20304;-71
2022/05/09 06:54:27;;;;;;;15.03;5.17;;;;;;;-145.18;100.00;47299.19;4990416;28;20037;-71
2022/05/09 06:56:52;;;;;;;18.93;4.97;;;;;;;-145.18;100.00;47316.78;4990095;28;20368;-71
2022/05/09 06:59:20;;;;;;;20.20;4.93;;;;;;;-145.18;100.00;47291.38;4990067;28;20030;-71
2022/05/09 07:01:46;;;;;;;14.87;5.27;;;;;;;-145.18;100.00;47293.31;4990692;28;20041;-71
2022/05/09 07:04:11;;;;;;;15.57;5.10;;;;;;;-145.18;100.00;47301.16;4989239;28;20054;-71
2022/05/09 07:06:38;;;;;;;18.07;5.23;;;;;;;-145.18;100.00;47279.66;4990308;28;20045;-72
2022/05/09 07:09:10;;;;;;;23.07;6.33;;;;;;;-145.18;100.00;47271.84;4989905;28;20030;-72
2022/05/09 07:11:38;;;;;;;17.30;5.07;;;;;;;-145.18;100.00;47281.59;4990614;28;20092;-71
2022/05/09 07:14:04;;;;;;;15.13;4.90;;;;;;;-145.18;100.00;47285.50;4989746;28;20037;-71
2022/05/09 07:16:30;;;;;;;17.57;6.40;;;;;;;-145.18;100.00;47293.31;4990882;28;20030;-72
2022/05/09 07:18:55;;;;;;;17.00;5.37;;;;;;;-145.18;100.00;47256.22;4989409;28;20050;-71
2022/05/09 07:21:20;;;;;;;17.40;6.20;;;;;;;-145.18;100.00;47250.34;4990244;28;20388;-72
2022/05/09 07:23:46;;;;;;;26.60;6.97;;;;;;;-145.18;100.00;47258.16;4988989;28;20066;-72
2022/05/09 07:26:11;;;;;;;22.87;5.67;;;;;;;-145.18;100.00;47267.94;4990221;28;20031;-71
2022/05/09 07:28:37;;;;;;;14.97;5.97;;;;;;;-145.18;100.00;47234.72;4989852;28;20034;-72
2022/05/09 07:31:03;;;;;;;18.53;6.13;;;;;;;-145.18;100.00;47242.53;4989847;28;20445;-72
2022/05/09 07:33:29;;;;;;;24.00;6.63;;;;;;;-145.18;100.00;47232.75;4989846;28;20042;-72
2022/05/09 07:35:55;;;;;;;21.67;6.10;;;;;;;-145.18;100.00;47246.44;4972513;28;20034;-72
2022/05/09 07:38:20;;;;;;;15.97;5.13;;;;;;;-145.18;100.00;47217.13;4989936;28;20047;-72
2022/05/09 07:40:47;;;;;;;15.57;6.00;;;;;;;-145.18;100.00;47234.72;4990370;28;20497;-72
2022/05/09 07:43:28;;;;;;;19.37;5.83;;;;;;;-145.18;100.00;47226.91;4989626;28;20034;-73
2022/05/09 07:45:55;;;;;;;13.57;5.13;;;;;;;-145.18;100.00;47217.13;4990732;28;20100;-72
2022/05/09 07:48:22;;;;;;;13.40;5.13;;;;;;;-145.18;100.00;47221.03;4993261;28;20084;-72
2022/05/09 07:50:49;;;;;;;21.10;5.30;;;;;;;-145.18;100.00;47215.19;4993646;28;20034;-72
2022/05/09 07:53:18;;;;;;;15.00;5.33;;;;;;;-145.18;100.00;47219.09;4993625;28;20045;-72
2022/05/09 07:55:44;;;;;;;20.00;5.40;;;;;;;-145.18;100.00;47195.66;4993497;28;20030;-72
2022/05/09 07:58:10;;;;;;;16.87;5.30;;;;;;;-145.18;100.00;47191.75;4970303;28;20436;-72
2022/05/09 08:00:40;;;;;;;16.87;4.90;;;;;;;-145.18;100.00;47199.56;4972415;28;20026;-72
2022/05/09 08:03:12;;;;;;;18.73;5.63;;;;;;;-145.18;100.00;47193.69;4973081;28;20117;-72
2022/05/09 08:05:37;;;;;;;15.93;5.00;;;;;;;-145.18;100.00;47176.09;4973029;28;20047;-72
2022/05/09 08:08:03;;;;;;;14.27;5.57;;;;;;;-145.18;100.00;47195.66;4970082;28;20054;-72
2022/05/09 08:10:30;;;;;;;12.80;4.60;;;;;;;-145.18;100.00;47178.06;4973798;28;20026;-72
2022/05/09 08:12:56;;;;;;;14.70;4.90;;;;;;;-145.18;100.00;47189.78;4973047;28;20114;-72
2022/05/09 08:15:22;;;;;;;12.33;4.40;;;;;;;-145.18;100.00;47185.88;4974294;28;20471;-72
2022/05/09 08:17:49;;;;;;;15.87;4.80;;;;;;;-145.18;100.00;47183.94;4973267;28;20037;-72
2022/05/09 08:20:16;;;;;;;12.40;4.37;;;;;;;-145.18;100.00;47172.19;4973857;28;20042;-72
2022/05/09 08:22:42;;;;;;;17.63;5.47;;;;;;;-145.18;100.00;47152.66;4974063;28;20035;-72
2022/05/09 08:25:09;;;;;;;15.37;5.10;;;;;;;-145.18;100.00;47160.47;4973206;28;20115;-72
2022/05/09 08:27:34;;;;;;;12.83;4.53;;;;;;;-145.18;100.00;47162.44;4973671;28;20488;-72
2022/05/09 08:30:00;;;;;;;16.77;5.57;;;;;;;-145.18;100.00;47140.94;4955924;28;20043;-72
2022/05/09 08:32:27;;;;;;;11.23;5.27;;;;;;;-145.18;100.00;47152.66;4973368;28;20041;-72
2022/05/09 08:34:53;;;;;;;12.60;4.40;;;;;;;-145.18;100.00;47142.91;4972823;28;20128;-72
2022/05/09 08:37:19;;;;;;;12.00;4.40;;;;;;;-145.18;100.00;47146.81;4973799;28;20499;-72
2022/05/09 08:39:45;;;;;;;14.90;4.77;;;;;;;-145.18;100.00;47152.66;4972276;28;20379;-72
2022/05/09 08:42:14;;;;;;;18.60;5.47;;;;;;;-145.18;100.00;47129.22;4972464;28;20050;-72
2022/05/09 08:44:46;;;;;;;15.13;4.30;;;;;;;-145.18;100.00;47127.28;4973279;28;20045;-72
2022/05/09 08:47:51;;;;;;;11.37;5.20;;;;;;;-145.18;100.00;47133.13;4972888;28;20035;-72
2022/05/09 08:50:48;;;;;;;11.67;4.60;;;;;;;-145.18;100.00;47113.59;4973090;28;20027;-72
2022/05/09 08:53:22;;;;;;;13.10;4.55;;;;;;;-145.18;100.00;47109.69;4971691;28;20050;-72
2022/05/09 08:55:49;;;;;;;25.47;6.23;;;;;;;-145.18;100.00;47094.06;4973395;28;20039;-72
2022/05/09 08:58:51;;;;;;;12.90;4.40;;;;;;;-145.18;100.00;47096.00;4971187;28;20043;-72
2022/05/09 09:01:32;;;;;;;12.87;4.40;;;;;;;-145.18;100.00;47105.78;4974433;28;20043;-72
2022/05/09 09:04:02;;;;;;;14.60;4.60;;;;;;;-145.18;100.00;47090.16;4983861;28;20050;-72
2022/05/09 09:06:51;;;;;;;11.73;4.00;;;;;;;-145.18;100.00;47111.66;4973169;28;20038;-72
2022/05/09 09:09:41;;;;;;;12.77;4.50;;;;;;;-145.18;100.00;47092.09;4972321;28;20050;-72
2022/05/09 09:12:19;;;;;;;11.87;4.40;;;;;;;-145.18;100.00;47099.91;4972526;28;20053;-72
2022/05/09 09:15:11;;;;;;;17.87;4.63;;;;;;;-145.18;100.00;47078.44;4972828;28;20026;-72
2022/05/09 09:18:00;;;;;;;15.00;4.23;;;;;;;-145.18;100.00;47078.44;4972735;28;20049;-72
2022/05/09 09:20:52;;;;;;;16.97;4.80;;;;;;;-145.18;100.00;47078.44;4972562;28;20031;-72
2022/05/09 09:23:47;;;;;;;15.87;4.43;;;;;;;-145.18;100.00;47076.47;4958896;28;20126;-72
2022/05/09 09:26:38;;;;;;;12.57;4.67;;;;;;;-145.18;100.00;47062.81;4972404;28;20038;-72
2022/05/09 09:29:20;;;;;;;12.90;3.73;;;;;;;-145.18;100.00;47068.66;4972281;28;20035;-72
2022/05/09 09:31:55;;;;;;;15.77;4.93;;;;;;;-145.18;100.00;47090.16;4972613;28;20041;-72
2022/05/09 09:34:26;;;;;;;9.52;4.68;;;;;;;-145.18;100.00;47062.81;4971851;28;20047;-72
2022/05/09 09:37:00;;;;;;;14.33;4.77;;;;;;;-145.18;100.00;47055.00;4972016;28;20027;-72
2022/05/09 09:39:26;;;;;;;13.23;4.50;;;;;;;-145.18;100.00;47070.63;4972174;28;20039;-72
2022/05/09 09:41:52;;;;;;;10.50;4.83;;;;;;;-145.18;100.00;47086.25;4954402;28;20062;-72
2022/05/09 09:44:27;;;;;;;12.43;4.50;;;;;;;-145.18;100.00;47062.81;4971743;28;20066;-72
2022/05/09 09:46:58;;;;;;;10.70;3.80;;;;;;;-145.18;100.00;47082.34;4972154;28;20059;-72
2022/05/09 09:49:24;;;;;;;8.10;3.10;;;;;;;-145.18;100.00;47058.91;4971634;28;20110;-72
2022/05/09 09:51:50;;;;;;;8.70;3.03;;;;;;;-145.18;100.00;47074.53;4971984;28;20118;-72
2022/05/09 09:54:22;;;;;;;12.30;4.43;;;;;;;-145.18;100.00;47056.94;4972198;28;20030;-72
2022/05/09 09:56:47;;;;;;;12.60;3.93;;;;;;;-145.18;100.00;47049.13;4971885;28;20049;-72
2022/05/09 09:59:34;;;;;;;14.63;4.67;;;;;;;-145.18;100.00;47035.44;4953924;28;20052;-72
2022/05/09 10:02:16;;;;;;;11.07;4.37;;;;;;;-145.18;100.00;47037.41;4971912;28;20042;-72
2022/05/09 10:04:42;;;;;;;11.07;3.60;;;;;;;-145.18;100.00;47047.19;4971440;28;20047;-72
2022/05/09 10:07:16;;;;;;;8.53;4.37;;;;;;;-145.18;100.00;47035.44;4954178;28;20050;-72
2022/05/09 10:09:46;;;;;;;10.43;3.70;;;;;;;-145.18;100.00;47023.72;4971391;28;20121;-72
2022/05/09 10:12:25;;;;;;;13.70;3.60;;;;;;;-145.18;100.00;47027.63;4971650;28;20043;-72
2022/05/09 10:14:52;;;;;;;12.23;3.53;;;;;;;-145.18;98.51;47004.19;4971270;28;20030;-72
2022/05/09 10:17:33;;;;;;;10.67;3.53;;;;;;;-145.18;97.16;47019.81;4971590;28;20538;-72
2022/05/09 10:20:20;;;;;;;10.87;3.80;;;;;;;-145.18;100.00;47021.78;4954057;28;20038;-72
2022/05/09 10:25:33;;;;;;;11.87;4.33;;;;;;;-145.18;100.00;47004.19;4971582;28;20121;-72
2022/05/09 10:28:21;;;;;;;11.07;4.53;;;;;;;-145.18;93.65;47000.28;4971409;28;20058;-72
2022/05/09 10:30:50;;;;;;;14.70;4.10;;;;;;;-145.18;96.67;47002.25;4971221;28;20058;-72
2022/05/09 10:33:38;;;;;;;13.23;4.90;;;;;;;-145.18;99.13;46992.47;4969730;28;20732;-72
2022/05/09 10:36:16;;;;;;;7.97;3.40;;;;;;;-145.18;87.75;47012.00;4970775;28;20039;-72
2022/05/09 10:38:48;;;;;;;10.87;3.83;;;;;;;-145.18;91.96;47006.16;4971003;28;20097;-72
2022/05/09 10:41:34;;;;;;;11.63;3.47;;;;;;;-145.18;81.79;47000.28;4970817;28;20369;-72
2022/05/09 10:44:21;;;;;;;9.97;4.03;;;;;;;-145.18;78.33;46996.38;4970892;28;20027;-72
2022/05/09 10:46:52;;;;;;;12.10;4.10;;;;;;;-145.18;85.76;46998.34;4971288;28;20105;-72
2022/05/09 10:49:45;;;;;;;8.93;3.23;;;;;;;-145.18;80.84;47012.00;4970947;28;20153;-72
2022/05/09 10:52:41;;;;;;;8.70;3.37;;;;;;;-145.18;80.06;46988.56;4971444;28;20034;-72
2022/05/09 10:55:15;;;;;;;8.10;4.35;;;;;;;-145.18;83.65;46992.47;4969930;28;20030;-72
2022/05/09 10:57:46;;;;;;;10.03;4.13;;;;;;;-145.18;80.00;46996.38;4971001;28;20034;-72
2022/05/09 11:00:19;;;;;;;9.07;4.00;;;;;;;-145.18;87.04;47008.09;4970584;28;20066;-72
2022/05/09 11:03:09;;;;;;;11.40;4.17;;;;;;;-145.18;80.19;46994.44;4971216;28;20023;-72
2022/05/09 11:06:08;;;;;;;9.53;3.70;;;;;;;-145.18;87.52;47008.09;4970581;28;20573;-72
2022/05/09 11:08:57;;;;;;;9.00;3.60;;;;;;;-145.18;87.51;46992.47;4969805;28;20058;-72
2022/05/09 11:11:54;;;;;;;9.20;3.50;;;;;;;-145.18;81.57;46988.56;4970748;28;20045;-72
2022/05/09 11:14:39;;;;;;;8.77;3.67;;;;;;;-145.18;76.41;46984.66;4933462;28;20483;-72
2022/05/09 11:17:39;;;;;;;9.97;3.60;;;;;;;-145.18;72.15;46969.03;4970726;28;20026;-72
2022/05/09 11:20:42;;;;;;;8.90;3.63;;;;;;;-145.18;70.69;46971.00;4969988;28;20434;-72
2022/05/09 11:23:32;;;;;;;9.77;3.43;;;;;;;-145.18;71.80;46965.13;4974367;28;20035;-72
2022/05/09 11:26:13;;;;;;;10.20;3.93;;;;;;;-145.18;68.55;46963.19;4974584;28;20039;-72
2022/05/09 11:29:12;;;;;;;7.07;2.97;;;;;;;-145.18;62.70;46961.22;4974396;28;20035;-72
2022/05/09 11:31:41;;;;;;;10.83;3.07;;;;;;;-145.18;61.70;46953.41;4974899;28;20047;-72
2022/05/09 11:34:22;;;;;;;13.27;3.63;;;;;;;-145.18;64.71;46947.53;4973767;28;20070;-72